Time;durP1;ratioP1;P1;durP2;ratioP2;P2;SDS_P1;SDS_P2;PMS_P1;PMS_P2;Temp;Humidity;BMP_temperature;BMP_pressure;BME280_temperature;BME280_humidity;BME280_pressure;Samples;Min_cycle;Max_cycle;Signal;HPM_P1;HPM_P2
2023/03/04 00:02:49;;;;;;;16.38;3.88;;;;;;;4.07;63.72;101176.28;10371498;28;20588;-79
2023/03/04 00:07:53;;;;;;;15.38;4.10;;;;;;;4.37;62.80;101188.31;10367714;28;20111;-78
2023/03/04 00:12:56;;;;;;;20.83;4.25;;;;;;;4.14;63.88;101181.31;10372245;28;20077;-78
2023/03/04 00:17:59;;;;;;;24.90;4.20;;;;;;;3.97;64.20;101178.44;10366360;28;20054;-79
2023/03/04 00:23:03;;;;;;;19.70;4.85;;;;;;;4.28;63.73;101190.47;10371179;28;20113;-79
2023/03/04 00:28:05;;;;;;;23.00;4.10;;;;;;;4.32;62.98;101177.00;10370415;28;20077;-79
2023/03/04 00:33:08;;;;;;;17.50;3.53;;;;;;;4.26;63.37;101173.75;10363113;28;20565;-77
2023/03/04 00:38:12;;;;;;;27.98;4.97;;;;;;;4.02;63.64;101176.47;10379765;28;20092;-78
2023/03/04 00:43:17;;;;;;;28.02;4.57;;;;;;;4.17;63.17;101180.31;10366841;28;20039;-79
2023/03/04 00:48:20;;;;;;;22.45;4.07;;;;;;;4.30;63.01;101185.97;10370562;28;20650;-79
2023/03/04 00:53:24;;;;;;;23.25;4.00;;;;;;;4.43;62.40;101173.88;10373937;28;20504;-79
2023/03/04 00:58:27;;;;;;;19.10;3.80;;;;;;;4.44;62.28;101166.75;10365358;28;20062;-79
2023/03/04 01:03:31;;;;;;;12.63;3.40;;;;;;;4.52;62.53;101180.59;10376925;28;20576;-79
2023/03/04 01:08:35;;;;;;;20.00;4.13;;;;;;;4.46;62.79;101173.75;10375828;28;20074;-80
2023/03/04 01:13:39;;;;;;;24.70;4.28;;;;;;;4.48;62.42;101174.53;10378398;28;20069;-78
2023/03/04 01:18:41;;;;;;;22.73;3.72;;;;;;;4.38;62.73;101171.41;10370168;28;20084;-79
2023/03/04 01:23:46;;;;;;;23.52;4.50;;;;;;;3.71;65.07;101155.59;10384339;28;20531;-77
2023/03/04 01:28:48;;;;;;;28.17;4.50;;;;;;;4.21;63.32;101155.31;10388461;28;20335;-80
2023/03/04 01:33:51;;;;;;;20.77;3.88;;;;;;;3.57;64.46;101149.97;10366730;28;20042;-76
2023/03/04 01:38:55;;;;;;;18.05;3.75;;;;;;;4.25;63.08;101140.06;10377600;28;20077;-78
2023/03/04 01:44:01;;;;;;;22.10;3.53;;;;;;;3.95;64.42;101140.47;10368931;28;20046;-77
2023/03/04 01:49:04;;;;;;;27.13;3.50;;;;;;;3.89;63.59;101133.56;10377165;28;20042;-77
2023/03/04 01:54:09;;;;;;;21.90;4.28;;;;;;;4.01;64.55;101128.69;10368805;28;20125;-79
2023/03/04 01:59:14;;;;;;;19.67;3.33;;;;;;;4.18;63.97;101113.75;10365257;28;20041;-78
2023/03/04 02:04:20;;;;;;;17.35;3.55;;;;;;;4.37;63.36;101111.16;10375103;28;20042;-78
2023/03/04 02:09:24;;;;;;;18.27;4.25;;;;;;;4.29;63.43;101101.78;10363846;28;20137;-79
2023/03/04 02:14:27;;;;;;;16.25;3.53;;;;;;;4.31;64.04;101102.59;10387023;28;20532;-78
2023/03/04 02:19:41;;;;;;;15.05;2.50;;;;;;;4.29;63.92;101096.47;10368341;28;20128;-78
2023/03/04 02:24:49;;;;;;;16.73;2.20;;;;;;;4.25;64.00;101100.19;10369292;28;20493;-79
2023/03/04 02:29:53;;;;;;;17.73;3.85;;;;;;;4.28;63.66;101103.59;10394187;28;20038;-77
2023/03/04 02:34:56;;;;;;;17.05;3.10;;;;;;;4.30;63.99;101095.53;10380535;28;20048;-77
2023/03/04 02:39:59;;;;;;;13.68;3.03;;;;;;;4.36;63.67;101096.13;10409835;28;20099;-77
2023/03/04 02:45:04;;;;;;;18.23;2.97;;;;;;;4.32;64.07;101097.19;10391252;28;20049;-77
2023/03/04 02:50:08;;;;;;;17.58;2.90;;;;;;;4.34;63.80;101094.47;10369660;28;20038;-78
2023/03/04 02:55:11;;;;;;;13.60;3.25;;;;;;;3.79;64.79;101084.41;10364904;28;20045;-77
2023/03/04 03:00:15;;;;;;;16.35;2.95;;;;;;;3.82;64.55;101080.75;10370948;28;20073;-79
2023/03/04 03:05:18;;;;;;;20.13;2.83;;;;;;;4.34;63.28;101084.69;10370812;28;20041;-79
2023/03/04 03:10:21;;;;;;;15.75;3.15;;;;;;;4.31;63.34;101079.50;10376133;28;20050;-77
2023/03/04 03:15:27;;;;;;;15.73;3.58;;;;;;;4.30;63.77;101069.78;10389747;28;20109;-78
2023/03/04 03:20:30;;;;;;;11.30;2.58;;;;;;;4.15;64.20;101076.66;10364200;28;20038;-78
2023/03/04 03:25:33;;;;;;;15.35;2.70;;;;;;;3.92;65.53;101061.69;10380495;28;20125;-77
2023/03/04 03:30:37;;;;;;;11.73;2.88;;;;;;;4.08;65.27;101061.88;10366942;28;20396;-79
2023/03/04 03:35:41;;;;;;;13.75;2.38;;;;;;;4.08;65.17;101055.69;10360350;28;20042;-78
2023/03/04 03:40:44;;;;;;;14.77;2.70;;;;;;;3.71;66.19;101055.47;10368321;28;20049;-79
2023/03/04 03:45:48;;;;;;;15.43;2.90;;;;;;;4.09;65.48;101060.09;10363136;28;20558;-79
2023/03/04 03:50:51;;;;;;;15.18;2.60;;;;;;;4.10;64.81;101054.72;10380838;28;20056;-79
2023/03/04 03:55:54;;;;;;;11.25;3.08;;;;;;;3.97;64.90;101058.81;10365069;28;20061;-77
2023/03/04 04:00:58;;;;;;;20.48;5.38;;;;;;;4.11;64.72;101050.25;10359628;28;20042;-78
2023/03/04 04:06:01;;;;;;;9.45;1.80;;;;;;;4.25;64.07;101054.97;10368656;28;20041;-79
2023/03/04 04:11:04;;;;;;;8.90;2.10;;;;;;;4.16;64.29;101046.47;10406418;23;20060;-77
2023/03/04 04:16:09;;;;;;;12.90;1.90;;;;;;;4.17;64.32;101048.22;10471050;28;20041;-78
2023/03/04 04:21:13;;;;;;;13.70;2.58;;;;;;;4.36;64.55;101045.59;10453975;28;20199;-78
2023/03/04 04:26:15;;;;;;;17.92;3.45;;;;;;;3.82;66.22;101044.41;10462549;28;20090;-79
2023/03/04 04:31:20;;;;;;;12.55;1.67;;;;;;;3.41;67.30;101049.63;10469291;28;20457;-78
2023/03/04 04:36:22;;;;;;;14.63;3.05;;;;;;;3.79;66.52;101041.03;10445221;28;20053;-78
2023/03/04 04:41:28;;;;;;;14.18;2.20;;;;;;;3.92;66.42;101029.81;10471958;28;20041;-78
2023/03/04 04:46:32;;;;;;;17.10;2.20;;;;;;;3.68;66.92;101025.53;10448902;28;20536;-77
2023/03/04 04:51:37;;;;;;;19.05;4.10;;;;;;;4.01;66.62;101033.00;10480236;28;20044;-77
2023/03/04 04:56:39;;;;;;;20.10;2.17;;;;;;;3.92;67.24;101039.53;10459773;28;20445;-78
2023/03/04 05:01:44;;;;;;;18.58;2.08;;;;;;;3.83;67.40;101040.81;10451613;28;20095;-80
2023/03/04 05:06:47;;;;;;;13.27;3.30;;;;;;;4.09;66.94;101034.38;10473804;28;20053;-79
2023/03/04 05:11:49;;;;;;;14.25;2.80;;;;;;;3.77;68.10;101035.75;10454372;28;20494;-79
2023/03/04 05:16:54;;;;;;;17.10;2.40;;;;;;;4.13;66.97;101030.63;10474522;28;20039;-79
2023/03/04 05:21:57;;;;;;;13.38;2.40;;;;;;;4.10;67.43;101043.22;10473190;28;20127;-79
2023/03/04 05:27:00;;;;;;;15.35;2.60;;;;;;;3.93;68.03;101038.63;10465600;28;20095;-79
2023/03/04 05:32:04;;;;;;;14.30;2.38;;;;;;;3.73;69.72;101037.69;10481290;28;20502;-78
2023/03/04 05:37:07;;;;;;;16.48;3.33;;;;;;;3.74;69.71;101033.22;10455321;28;20079;-78
2023/03/04 05:42:10;;;;;;;14.23;3.40;;;;;;;3.04;70.66;101037.84;10474948;28;20041;-79
2023/03/04 05:47:14;;;;;;;11.95;3.35;;;;;;;3.74;70.87;101043.84;10469675;28;20093;-78
2023/03/04 05:52:17;;;;;;;16.48;3.70;;;;;;;3.67;70.87;101031.75;10470786;28;20053;-78
2023/03/04 05:57:20;;;;;;;17.25;3.92;;;;;;;3.57;71.79;101041.06;10460846;28;20045;-78
2023/03/04 06:02:24;;;;;;;19.73;3.00;;;;;;;2.86;74.95;101040.34;10478374;28;20045;-77
2023/03/04 06:07:27;;;;;;;15.07;3.20;;;;;;;3.00;74.39;101035.38;10483600;28;20049;-78
2023/03/04 06:12:30;;;;;;;14.90;3.05;;;;;;;2.74;76.20;101041.66;10458558;28;20047;-78
2023/03/04 06:17:34;;;;;;;12.13;2.33;;;;;;;2.89;76.59;101049.03;10491532;28;20052;-78
2023/03/04 06:22:37;;;;;;;13.90;3.38;;;;;;;2.86;77.22;101049.16;10465238;28;20045;-79
2023/03/04 06:27:40;;;;;;;17.98;4.07;;;;;;;2.83;77.46;101052.81;10458316;28;20091;-78
2023/03/04 06:32:44;;;;;;;14.45;2.90;;;;;;;3.00;78.01;101041.53;10470752;28;20041;-78
2023/03/04 06:37:47;;;;;;;12.43;2.70;;;;;;;2.60;79.16;101043.03;10451192;28;20046;-78
2023/03/04 06:42:50;;;;;;;19.40;5.50;;;;;;;3.02;78.06;101036.19;10480395;28;20045;-79
2023/03/04 06:47:54;;;;;;;13.55;2.95;;;;;;;3.28;77.52;101043.94;10454507;28;20048;-78
2023/03/04 06:52:57;;;;;;;19.75;3.63;;;;;;;3.46;76.88;101044.16;10472135;28;20040;-79
2023/03/04 06:58:00;;;;;;;21.00;3.03;;;;;;;3.43;76.60;101052.25;10462862;28;20072;-78
2023/03/04 07:03:04;;;;;;;13.68;3.33;;;;;;;3.13;77.71;101049.03;10459472;28;20071;-79
2023/03/04 07:08:07;;;;;;;12.73;3.35;;;;;;;3.51;77.32;101039.47;10469643;28;20067;-78
2023/03/04 07:13:10;;;;;;;10.13;3.17;;;;;;;3.93;75.28;101041.28;10471126;28;20139;-79
2023/03/04 07:18:14;;;;;;;11.30;3.28;;;;;;;4.00;75.04;101052.50;10503275;28;20055;-79
2023/03/04 07:23:18;;;;;;;14.25;2.17;;;;;;;3.14;76.92;101046.28;10502152;28;20056;-79
2023/03/04 07:28:21;;;;;;;12.45;1.92;;;;;;;3.51;75.27;101047.44;10496617;28;20044;-79
2023/03/04 07:33:25;;;;;;;11.52;1.67;;;;;;;3.64;75.70;101055.78;10521690;28;20052;-79
2023/03/04 07:38:28;;;;;;;11.60;1.98;;;;;;;3.99;74.68;101054.31;10521574;28;20041;-79
2023/03/04 07:43:30;;;;;;;9.40;3.00;;;;;;;3.88;75.18;101043.28;10542112;28;20045;-79
2023/03/04 07:48:36;;;;;;;7.75;1.85;;;;;;;4.13;74.31;101049.25;10515363;28;20106;-79
2023/03/04 07:53:40;;;;;;;14.63;2.95;;;;;;;4.67;72.90;101043.34;10512826;28;20074;-79
2023/03/04 07:58:44;;;;;;;5.97;1.85;;;;;;;4.33;72.06;101034.22;10500435;28;20069;-79
2023/03/04 08:03:48;;;;;;;10.57;2.90;;;;;;;4.64;72.04;101039.03;10493681;28;20119;-79
2023/03/04 08:08:56;;;;;;;10.73;2.78;;;;;;;4.54;72.81;101043.03;10514768;28;20099;-80
2023/03/04 08:13:59;;;;;;;9.43;3.15;;;;;;;4.39;72.66;101050.78;10492779;28;20055;-79
2023/03/04 08:19:05;;;;;;;9.82;3.03;;;;;;;4.39;74.60;101039.28;10513443;28;20482;-79
2023/03/04 08:24:08;;;;;;;14.07;3.20;;;;;;;4.28;76.69;101054.81;10505675;28;20036;-78
2023/03/04 08:29:13;;;;;;;16.45;3.75;;;;;;;3.87;77.16;101050.38;10503801;28;20079;-78
2023/03/04 08:34:18;;;;;;;13.38;4.03;;;;;;;3.70;77.44;101056.41;10512195;28;20044;-78
2023/03/04 08:39:21;;;;;;;12.45;3.95;;;;;;;3.83;77.36;101042.59;10502138;28;20056;-78
2023/03/04 08:44:24;;;;;;;13.77;4.28;;;;;;;4.20;77.10;101041.88;10508370;28;20060;-78
2023/03/04 08:49:29;;;;;;;13.45;2.97;;;;;;;4.21;77.81;101040.94;10500156;28;20712;-78
2023/03/04 08:54:32;;;;;;;13.80;4.32;;;;;;;4.19;77.86;101042.81;10506811;28;20032;-78
2023/03/04 08:59:35;;;;;;;11.35;3.50;;;;;;;3.97;79.27;101042.88;10502861;28;20056;-78
2023/03/04 09:04:41;;;;;;;7.22;3.47;;;;;;;4.28;77.16;101036.19;10499617;28;20573;-77
2023/03/04 09:09:44;;;;;;;7.43;3.10;;;;;;;4.10;77.41;101033.44;10522540;28;20044;-79
2023/03/04 09:14:47;;;;;;;6.32;2.30;;;;;;;3.86;78.82;101045.97;10511060;28;20040;-78
2023/03/04 09:20:07;;;;;;;7.28;2.53;;;;;;;4.13;79.00;101043.94;10519794;28;20043;-79
2023/03/04 09:25:14;;;;;;;11.20;4.63;;;;;;;4.17;80.72;101045.53;10519037;28;20039;-78
2023/03/04 09:30:17;;;;;;;16.10;4.38;;;;;;;4.14;81.81;101045.69;10510948;28;20128;-78
2023/03/04 09:35:21;;;;;;;13.73;3.70;;;;;;;4.17;81.52;101052.66;10513102;28;20510;-79
2023/03/04 09:40:28;;;;;;;9.52;4.00;;;;;;;3.61;83.25;101050.59;10506842;28;20040;-78
2023/03/04 09:45:37;;;;;;;9.27;3.88;;;;;;;4.43;81.26;101040.84;10527988;28;20060;-79
2023/03/04 09:50:52;;;;;;;15.82;4.03;;;;;;;4.42;81.08;101040.94;10506747;28;20049;-79
2023/03/04 09:55:56;;;;;;;11.30;4.47;;;;;;;4.78;77.78;101039.25;10511703;28;20495;-78
2023/03/04 10:01:03;;;;;;;9.95;3.70;;;;;;;4.82;77.97;101032.81;10511072;28;20044;-79
2023/03/04 10:06:13;;;;;;;10.88;3.92;;;;;;;4.68;78.95;101029.09;10489456;28;20410;-79
2023/03/04 10:11:18;;;;;;;15.27;3.97;;;;;;;5.72;75.66;101024.09;10458372;28;20160;-78
2023/03/04 10:16:25;;;;;;;8.70;4.10;;;;;;;5.95;73.12;101013.13;10458075;28;20048;-79
2023/03/04 10:21:33;;;;;;;5.72;2.80;;;;;;;6.44;70.71;101011.44;10487967;28;20048;-79
2023/03/04 10:26:36;;;;;;;6.00;2.40;;;;;;;6.86;70.21;101008.25;10498374;28;20479;-77
2023/03/04 10:31:40;;;;;;;3.53;1.92;;;;;;;6.15;71.99;101006.72;10502596;28;20052;-77
2023/03/04 10:36:53;;;;;;;4.65;2.28;;;;;;;5.09;77.67;101015.66;10492299;28;20063;-77
2023/03/04 10:41:59;;;;;;;5.38;3.00;;;;;;;5.31;79.03;101016.34;10489031;28;20097;-78
2023/03/04 10:47:02;;;;;;;6.35;3.65;;;;;;;5.19;79.00;101019.63;10507205;28;20067;-78
2023/03/04 10:52:19;;;;;;;5.20;3.05;;;;;;;5.47;79.20;101013.78;10492757;28;20148;-77
2023/03/04 10:57:28;;;;;;;6.15;2.85;;;;;;;6.16;77.06;101002.25;10512330;28;20196;-77
2023/03/04 11:02:32;;;;;;;4.10;3.05;;;;;;;5.84;75.28;100998.59;10500309;28;20047;-79
2023/03/04 11:07:40;;;;;;;4.75;2.47;;;;;;;6.29;72.69;100990.00;10526038;28;20089;-77
2023/03/04 11:13:02;;;;;;;6.30;2.47;;;;;;;6.27;71.85;100996.34;10505897;28;20075;-78
2023/03/04 11:18:10;;;;;;;8.23;2.25;;;;;;;7.34;69.49;100986.88;10487956;28;20048;-78
2023/03/04 11:23:18;;;;;;;9.27;2.67;;;;;;;7.54;65.78;100994.59;10495599;28;20048;-78
2023/03/04 11:28:24;;;;;;;10.32;2.10;;;;;;;7.42;65.25;100985.47;10489871;28;20086;-78
2023/03/04 11:33:40;;;;;;;7.95;1.67;;;;;;;6.53;68.60;100995.81;10490997;28;20052;-78
2023/03/04 11:38:48;;;;;;;6.63;1.60;;;;;;;6.54;68.33;100980.66;10490706;28;20807;-78
2023/03/04 11:43:51;;;;;;;8.00;1.63;;;;;;;6.85;67.02;100991.34;10495317;28;20040;-77
2023/03/04 11:49:01;;;;;;;12.10;2.00;;;;;;;6.00;66.03;100986.19;10485297;28;20134;-77
2023/03/04 11:54:26;;;;;;;7.95;1.52;;;;;;;6.80;64.15;100976.53;10488666;28;20051;-77
2023/03/04 11:59:44;;;;;;;11.82;2.30;;;;;;;6.72;63.66;100968.97;10494301;28;20036;-77
2023/03/04 12:05:05;;;;;;;13.90;1.58;;;;;;;7.35;62.87;100965.44;10485649;28;20051;-78
2023/03/04 12:10:20;;;;;;;11.15;2.33;;;;;;;6.94;63.09;100960.66;10491686;28;20703;-78
2023/03/04 12:15:27;;;;;;;12.35;1.55;;;;;;;6.94;63.82;100955.31;10486988;28;20059;-78
2023/03/04 12:20:47;;;;;;;10.15;1.33;;;;;;;6.03;65.04;100943.34;10500852;28;20044;-77
2023/03/04 12:26:00;;;;;;;11.50;2.13;;;;;;;6.40;66.13;100942.22;10494337;28;20054;-77
2023/03/04 12:31:30;;;;;;;9.35;2.25;;;;;;;6.19;67.92;100930.06;10483180;28;20514;-79
2023/03/04 12:36:41;;;;;;;9.88;1.73;;;;;;;6.55;68.16;100921.81;10497548;28;20155;-78
2023/03/04 12:41:58;;;;;;;12.48;1.63;;;;;;;6.80;66.28;100910.66;10488480;28;20044;-78
2023/03/04 12:47:20;;;;;;;11.23;2.67;;;;;;;7.25;64.20;100925.00;10499851;28;20531;-78
2023/03/04 12:52:33;;;;;;;7.85;1.60;;;;;;;6.78;66.69;100923.22;10512413;28;20504;-78
2023/03/04 12:57:39;;;;;;;7.85;1.65;;;;;;;6.54;68.49;100927.28;10511616;28;20124;-78
2023/03/04 13:02:52;;;;;;;10.15;1.60;;;;;;;6.50;69.63;100921.25;10506188;28;20055;-79
2023/03/04 13:08:04;;;;;;;8.85;1.98;;;;;;;6.78;69.86;100922.38;10496679;28;20128;-78
2023/03/04 13:13:34;;;;;;;3.03;0.95;;;;;;;6.76;69.77;100905.56;10505183;28;20880;-78
2023/03/04 13:18:38;;;;;;;2.95;1.40;;;;;;;5.89;68.04;100904.06;10502011;28;20051;-79
2023/03/04 13:23:42;;;;;;;5.78;1.20;;;;;;;6.54;68.37;100904.09;10497512;28;20056;-78
2023/03/04 13:28:48;;;;;;;10.55;1.50;;;;;;;6.22;66.78;100903.19;10477707;28;20055;-77
2023/03/04 13:33:54;;;;;;;4.40;0.90;;;;;;;6.02;67.02;100898.97;10488338;28;20241;-78
2023/03/04 13:39:00;;;;;;;9.60;1.52;;;;;;;6.32;64.35;100901.75;10512159;28;20736;-78
2023/03/04 13:44:32;;;;;;;6.88;1.20;;;;;;;6.85;62.04;100900.53;10495194;28;20098;-77
2023/03/04 13:49:35;;;;;;;13.45;1.73;;;;;;;6.95;62.02;100916.09;10498941;28;20518;-78
2023/03/04 13:54:37;;;;;;;14.23;2.20;;;;;;;6.94;62.97;100911.69;10502101;28;20066;-78
2023/03/04 13:59:44;;;;;;;16.30;3.10;;;;;;;6.66;65.37;100909.69;10505164;28;20040;-78
2023/03/04 14:04:56;;;;;;;10.70;1.88;;;;;;;6.14;66.58;100911.66;10508363;28;20051;-77
2023/03/04 14:10:03;;;;;;;12.48;2.13;;;;;;;6.16;66.69;100907.06;10510109;28;20048;-78
2023/03/04 14:15:22;;;;;;;9.50;2.60;;;;;;;6.11;64.42;100893.13;10502692;28;20051;-77
2023/03/04 14:20:28;;;;;;;13.82;2.17;;;;;;;6.08;64.48;100890.63;10502301;28;20417;-78
2023/03/04 14:25:32;;;;;;;11.38;3.22;;;;;;;6.33;63.50;100882.13;10499989;28;20044;-77
2023/03/04 14:30:40;;;;;;;12.13;1.70;;;;;;;6.64;61.83;100880.44;10513979;28;20117;-79
2023/03/04 14:35:48;;;;;;;13.02;3.10;;;;;;;6.31;59.24;100883.19;10504023;28;20047;-78
2023/03/04 14:40:55;;;;;;;10.18;1.95;;;;;;;6.71;60.06;100870.25;10532594;28;20066;-78
2023/03/04 14:46:02;;;;;;;6.57;1.67;;;;;;;7.01;59.31;100865.84;10507837;28;20076;-78
2023/03/04 14:51:06;;;;;;;12.13;1.90;;;;;;;7.06;57.26;100861.09;10508805;28;20048;-79
2023/03/04 14:56:10;;;;;;;15.63;2.33;;;;;;;6.74;56.68;100867.41;10496064;28;20048;-78
2023/03/04 15:01:17;;;;;;;10.10;2.50;;;;;;;6.44;59.12;100875.34;10499844;28;20045;-78
2023/03/04 15:06:21;;;;;;;10.48;2.00;;;;;;;6.58;59.47;100865.63;10493436;28;20117;-79
2023/03/04 15:11:26;;;;;;;13.15;1.95;;;;;;;6.72;59.62;100864.84;10532407;28;20106;-78
2023/03/04 15:16:54;;;;;;;17.38;2.53;;;;;;;6.61;59.33;100860.13;10524700;28;20427;-78
2023/03/04 15:22:05;;;;;;;11.70;2.13;;;;;;;5.95;61.54;100850.44;10499711;28;20052;-77
2023/03/04 15:27:11;;;;;;;4.47;1.10;;;;;;;5.63;65.93;100865.50;10512339;28;20051;-78
2023/03/04 15:32:16;;;;;;;8.02;1.77;;;;;;;5.18;69.96;100866.06;10503987;28;20128;-78
2023/03/04 15:37:22;;;;;;;9.05;1.55;;;;;;;5.31;69.44;100859.16;10498329;28;20052;-79
2023/03/04 15:42:27;;;;;;;6.55;1.02;;;;;;;5.21;66.32;100852.56;10490217;28;20043;-79
2023/03/04 15:47:31;;;;;;;8.38;1.13;;;;;;;5.08;65.28;100862.16;10494152;28;20130;-79
2023/03/04 15:52:35;;;;;;;15.80;1.38;;;;;;;5.33;65.70;100867.09;10498865;28;20620;-79
2023/03/04 15:57:38;;;;;;;6.47;1.33;;;;;;;5.41;66.28;100865.75;10494771;28;20423;-78
2023/03/04 16:02:42;;;;;;;10.93;1.55;;;;;;;4.98;69.93;100891.84;10497820;28;21275;-77
2023/03/04 16:07:47;;;;;;;5.78;1.30;;;;;;;4.52;72.58;100886.09;10478133;28;20048;-78
2023/03/04 16:12:51;;;;;;;7.47;1.30;;;;;;;4.12;72.77;100884.47;10499103;28;20517;-78
2023/03/04 16:17:56;;;;;;;5.55;1.10;;;;;;;4.06;74.82;100880.31;10506050;28;20048;-79
2023/03/04 16:23:01;;;;;;;6.40;1.25;;;;;;;4.21;73.32;100877.88;10501518;28;20088;-79
2023/03/04 16:28:04;;;;;;;8.52;1.70;;;;;;;4.43;72.23;100869.72;10510358;28;20051;-79
2023/03/04 16:33:10;;;;;;;7.40;1.60;;;;;;;4.59;71.82;100863.59;10508680;28;20131;-79
2023/03/04 16:38:21;;;;;;;3.70;1.02;;;;;;;4.59;71.11;100866.25;10511954;28;20063;-79
2023/03/04 16:43:25;;;;;;;9.45;2.15;;;;;;;4.55;70.53;100864.69;10511508;28;20040;-79
2023/03/04 16:48:29;;;;;;;9.10;1.60;;;;;;;4.70;71.26;100865.75;10510961;28;20039;-79
2023/03/04 16:53:34;;;;;;;11.60;2.63;;;;;;;4.57;69.74;100860.13;10497118;28;20048;-79
2023/03/04 16:58:37;;;;;;;5.88;2.65;;;;;;;4.53;70.46;100863.91;10487427;28;20783;-79
2023/03/04 17:03:41;;;;;;;8.02;2.30;;;;;;;4.55;70.57;100863.81;10495782;28;20050;-79
2023/03/04 17:08:44;;;;;;;13.50;2.13;;;;;;;4.30;68.58;100869.44;10493728;28;20050;-79
2023/03/04 17:13:47;;;;;;;9.50;3.25;;;;;;;4.37;68.55;100873.56;10492663;28;20135;-78
2023/03/04 17:18:51;;;;;;;13.73;1.70;;;;;;;4.51;68.71;100892.38;10488036;28;20130;-77
2023/03/04 17:23:54;;;;;;;12.65;2.55;;;;;;;4.43;69.00;100893.69;10493700;28;20055;-77
2023/03/04 17:28:57;;;;;;;10.13;1.75;;;;;;;4.40;69.43;100894.69;10502026;28;20058;-77
2023/03/04 17:34:02;;;;;;;8.52;2.05;;;;;;;4.41;69.16;100893.72;10503816;28;20280;-77
2023/03/04 17:39:05;;;;;;;12.35;2.00;;;;;;;4.44;69.38;100903.38;10500651;28;20048;-79
2023/03/04 17:44:11;;;;;;;13.77;3.40;;;;;;;4.48;69.68;100907.63;10490855;28;20037;-77
2023/03/04 17:49:15;;;;;;;13.15;2.63;;;;;;;4.37;69.58;100909.00;10495845;28;20048;-78
2023/03/04 17:54:18;;;;;;;17.17;3.35;;;;;;;4.31;69.31;100906.63;10499550;28;20523;-79
2023/03/04 17:59:22;;;;;;;10.15;1.95;;;;;;;4.25;69.07;100906.03;10496296;28;20057;-79
2023/03/04 18:04:26;;;;;;;11.43;2.30;;;;;;;4.08;68.32;100902.34;10503237;28;20204;-78
2023/03/04 18:09:29;;;;;;;15.82;2.30;;;;;;;3.86;67.77;100896.28;10491958;28;20036;-78
2023/03/04 18:14:31;;;;;;;9.63;2.13;;;;;;;3.72;67.42;100887.13;10514871;28;20055;-78
2023/03/04 18:19:36;;;;;;;12.77;2.58;;;;;;;3.99;67.03;100894.81;10511571;28;20065;-77
2023/03/04 18:24:40;;;;;;;14.43;2.10;;;;;;;4.05;66.35;100891.84;10504272;28;20047;-79
2023/03/04 18:29:42;;;;;;;10.38;1.75;;;;;;;4.11;66.07;100888.94;10519109;28;20044;-79
2023/03/04 18:34:46;;;;;;;13.93;2.63;;;;;;;3.97;65.29;100887.81;10518487;28;20048;-79
2023/03/04 18:39:49;;;;;;;11.98;1.92;;;;;;;3.85;64.97;100876.81;10518285;28;20068;-80
2023/03/04 18:44:52;;;;;;;14.65;2.42;;;;;;;3.81;65.39;100882.34;10513043;28;20098;-79
2023/03/04 18:49:56;;;;;;;9.80;2.30;;;;;;;3.81;65.94;100882.34;10507215;28;20059;-79
2023/03/04 18:54:59;;;;;;;14.18;1.75;;;;;;;3.66;63.65;100879.44;10508508;28;20040;-79
2023/03/04 19:00:04;;;;;;;10.40;1.92;;;;;;;4.05;63.60;100885.69;10500726;28;20040;-79
2023/03/04 19:05:11;;;;;;;10.85;2.33;;;;;;;4.06;63.93;100887.41;10518604;28;20056;-79
2023/03/04 19:10:15;;;;;;;10.43;2.90;;;;;;;4.10;63.88;100900.50;10490350;28;20058;-80
2023/03/04 19:15:19;;;;;;;10.90;2.08;;;;;;;3.83;64.78;100885.78;10511851;28;20421;-79
2023/03/04 19:20:23;;;;;;;13.50;2.85;;;;;;;3.84;64.62;100892.81;10513973;28;20044;-79
2023/03/04 19:25:26;;;;;;;18.77;2.83;;;;;;;3.50;65.64;100894.31;10513134;28;20088;-79
2023/03/04 19:30:29;;;;;;;18.15;2.88;;;;;;;3.96;64.25;100894.94;10504368;28;20044;-80
2023/03/04 19:35:36;;;;;;;11.00;2.70;;;;;;;3.99;64.56;100907.22;10512177;28;20051;-79
2023/03/04 19:40:39;;;;;;;13.98;2.15;;;;;;;4.08;64.28;100906.81;10512565;28;21184;-79
2023/03/04 19:45:42;;;;;;;13.63;2.35;;;;;;;4.02;65.63;100923.91;10513226;28;20056;-79
2023/03/04 19:50:46;;;;;;;8.95;2.33;;;;;;;3.65;69.22;100922.03;10506517;28;20163;-79
2023/03/04 19:55:49;;;;;;;14.40;2.85;;;;;;;2.61;71.34;100924.56;10506765;28;20410;-79
2023/03/04 20:00:53;;;;;;;14.35;2.70;;;;;;;2.87;72.97;100918.19;10528712;28;20100;-79
2023/03/04 20:06:04;;;;;;;11.98;1.95;;;;;;;3.22;72.28;100922.06;10518118;28;20066;-79
2023/03/04 20:11:11;;;;;;;11.82;2.33;;;;;;;3.37;71.82;100917.03;10501848;28;20104;-79
2023/03/04 20:16:14;;;;;;;17.80;4.00;;;;;;;3.22;71.57;100922.06;10505026;28;20086;-79
2023/03/04 20:21:19;;;;;;;15.93;2.90;;;;;;;3.37;71.46;100925.84;10497863;28;20053;-79
2023/03/04 20:26:21;;;;;;;7.50;2.22;;;;;;;3.05;71.39;100921.91;10506207;28;20050;-78
2023/03/04 20:31:26;;;;;;;22.10;6.40;;;;;;;3.47;71.04;100915.72;10470731;28;21210;-79
2023/03/04 20:36:31;;;;;;;18.30;3.40;;;;;;;3.39;70.37;100920.47;10458624;28;20052;-80
2023/03/04 20:41:34;;;;;;;18.23;4.00;;;;;;;3.47;70.44;100923.69;10461082;28;20075;-79
2023/03/04 20:46:41;;;;;;;20.38;3.15;;;;;;;3.40;69.92;100916.88;10465152;28;20051;-79
2023/03/04 20:51:46;;;;;;;12.43;2.35;;;;;;;3.31;69.85;100912.84;10456357;28;20055;-79
2023/03/04 20:56:49;;;;;;;11.85;2.03;;;;;;;3.34;70.03;100922.47;10484419;28;20108;-79
2023/03/04 21:01:52;;;;;;;11.07;2.90;;;;;;;3.32;69.80;100914.59;10482297;28;20056;-78
2023/03/04 21:06:56;;;;;;;9.35;2.47;;;;;;;3.13;70.33;100922.44;10477612;28;20040;-79
2023/03/04 21:11:59;;;;;;;12.23;2.45;;;;;;;3.03;69.99;100918.44;10489891;28;20222;-79
2023/03/04 21:17:04;;;;;;;10.90;2.35;;;;;;;3.33;69.74;100912.78;10485131;28;20099;-79
2023/03/04 21:22:13;;;;;;;12.52;2.38;;;;;;;3.30;69.67;100912.91;10475011;28;20064;-79
2023/03/04 21:27:16;;;;;;;10.27;1.75;;;;;;;3.05;69.99;100913.94;10486475;28;20794;-79
2023/03/04 21:32:24;;;;;;;11.93;2.00;;;;;;;3.11;69.90;100897.75;10458631;28;20049;-79
2023/03/04 21:37:29;;;;;;;14.52;2.15;;;;;;;3.20;69.84;100894.69;10453683;28;20045;-79
2023/03/04 21:42:32;;;;;;;12.60;2.47;;;;;;;2.92;70.82;100896.78;10477989;28;20075;-79
2023/03/04 21:47:34;;;;;;;13.68;2.78;;;;;;;2.79;71.13;100888.47;10494268;28;21295;-79
2023/03/04 21:52:39;;;;;;;16.77;2.33;;;;;;;2.55;72.10;100888.53;10498079;28;20160;-79
2023/03/04 21:57:41;;;;;;;16.63;2.85;;;;;;;2.56;72.38;100890.25;10491088;28;20048;-77
2023/03/04 22:02:44;;;;;;;14.07;3.00;;;;;;;2.74;71.08;100870.09;10487992;28;20057;-80
2023/03/04 22:07:48;;;;;;;8.32;2.30;;;;;;;2.85;71.07;100872.28;10477624;28;20044;-78
2023/03/04 22:12:51;;;;;;;12.35;2.03;;;;;;;2.72;70.66;100876.38;10476267;28;20050;-79
2023/03/04 22:17:54;;;;;;;12.88;2.35;;;;;;;2.90;70.40;100869.44;10478985;28;20145;-80
2023/03/04 22:22:58;;;;;;;14.00;2.20;;;;;;;2.64;70.88;100866.06;10498100;28;20111;-78
2023/03/04 22:28:02;;;;;;;13.70;2.10;;;;;;;2.63;71.33;100853.72;10509245;28;20048;-78
2023/03/04 22:33:05;;;;;;;9.35;2.42;;;;;;;2.78;71.91;100861.06;10490018;28;20048;-78
2023/03/04 22:38:09;;;;;;;10.02;2.72;;;;;;;2.44;73.14;100855.34;10479393;28;20044;-79
2023/03/04 22:43:12;;;;;;;12.43;2.53;;;;;;;2.56;73.17;100860.22;10482239;28;20521;-78
2023/03/04 22:48:15;;;;;;;12.02;2.83;;;;;;;2.34;74.32;100855.72;10482961;28;20063;-79
2023/03/04 22:53:19;;;;;;;13.95;3.10;;;;;;;2.58;72.85;100848.63;10500685;23;20127;-75
2023/03/04 22:58:22;;;;;;;13.48;2.83;;;;;;;2.59;73.00;100845.03;10486126;28;20047;-75
2023/03/04 23:03:25;;;;;;;12.57;2.58;;;;;;;2.42;72.97;100842.16;10472105;28;20094;-74
2023/03/04 23:08:29;;;;;;;13.13;3.20;;;;;;;2.31;73.56;100833.78;10456213;28;20128;-75
2023/03/04 23:13:32;;;;;;;14.18;3.25;;;;;;;2.49;72.37;100834.81;10458156;28;20435;-76
2023/03/04 23:18:35;;;;;;;14.50;3.15;;;;;;;2.54;72.35;100835.53;10469952;28;20064;-76
2023/03/04 23:23:40;;;;;;;17.13;2.33;;;;;;;2.35;72.66;100835.38;10476060;28;20048;-75
2023/03/04 23:28:43;;;;;;;12.25;2.72;;;;;;;2.25;72.04;100834.88;10470724;28;20471;-75